Time;durP1;ratioP1;P1;durP2;ratioP2;P2;SDS_P1;SDS_P2;PMS_P1;PMS_P2;Temp;Humidity;BMP_temperature;BMP_pressure;BME280_temperature;BME280_humidity;BME280_pressure;Samples;Min_cycle;Max_cycle;Signal;HPM_P1;HPM_P2
2022/05/19 00:02:18;;;;;;;5.32;3.15;;;20.90;51.30;;;17.48;61.64;95881.34;5073893;28;20078;-48
2022/05/19 00:04:53;;;;;;;7.63;3.53;;;20.80;51.30;;;17.46;61.84;95894.31;5055848;28;20029;-52
2022/05/19 00:07:22;;;;;;;5.63;3.47;;;20.80;51.50;;;17.38;62.11;95889.63;5073797;28;20111;-49
2022/05/19 00:09:52;;;;;;;3.20;2.70;;;20.80;51.60;;;17.41;62.20;95896.31;5055911;28;20051;-55
2022/05/19 00:12:22;;;;;;;5.15;3.33;;;20.70;51.70;;;17.39;62.13;95893.13;5055903;28;20399;-54
2022/05/19 00:14:49;;;;;;;5.13;3.13;;;20.70;51.80;;;17.36;62.13;95897.22;5072380;28;20029;-48
2022/05/19 00:17:15;;;;;;;5.72;2.92;;;20.70;51.80;;;17.31;62.33;95895.41;5055980;28;20029;-49
2022/05/19 00:19:50;;;;;;;6.72;3.35;;;20.60;51.90;;;17.32;62.38;95905.09;5038994;28;20166;-48
2022/05/19 00:22:16;;;;;;;5.32;3.10;;;20.60;52.10;;;17.29;62.52;95900.28;5073890;28;20068;-52
2022/05/19 00:24:45;;;;;;;4.95;3.05;;;20.60;52.00;;;17.24;62.48;95897.72;5073239;28;20094;-55
2022/05/19 00:27:10;;;;;;;6.95;3.22;;;20.60;52.10;;;17.23;62.60;95893.41;5072789;28;20440;-50
2022/05/19 00:29:36;;;;;;;7.50;3.40;;;20.50;52.10;;;17.20;62.85;95898.59;5073226;28;20121;-51
2022/05/19 00:32:05;;;;;;;5.32;3.38;;;20.50;52.30;;;17.19;62.88;95907.78;5079738;28;20025;-48
2022/05/19 00:34:31;;;;;;;5.10;3.35;;;20.50;52.40;;;17.14;62.98;95895.22;5055542;28;20037;-49
2022/05/19 00:36:59;;;;;;;6.40;3.35;;;20.40;52.40;;;17.11;62.86;95893.13;5055237;28;20032;-49
2022/05/19 00:39:27;;;;;;;5.80;3.60;;;20.40;52.40;;;17.09;63.22;95896.13;5072939;28;20021;-51
2022/05/19 00:44:41;;;;;;;5.65;3.33;;;20.40;52.60;;;17.03;63.13;95893.81;5073429;28;20573;-50
2022/05/19 00:47:16;;;;;;;6.35;3.25;;;20.40;52.70;;;17.03;63.45;95902.69;5055200;28;20045;-50
2022/05/19 00:49:47;;;;;;;6.13;3.60;;;20.30;52.70;;;16.99;63.29;95895.53;5035596;28;20060;-49
2022/05/19 00:52:31;;;;;;;5.60;3.50;;;20.30;52.70;;;16.91;64.07;95902.38;5043117;28;20028;-51
2022/05/19 00:55:36;;;;;;;5.10;4.00;;;20.20;52.80;;;16.75;64.54;95891.09;5055352;28;20103;-49
2022/05/19 00:58:18;;;;;;;5.93;3.88;;;20.20;52.80;;;16.67;64.88;95905.16;5042404;28;20059;-48
2022/05/19 01:00:55;;;;;;;10.03;3.67;;;20.10;52.90;;;16.58;65.09;95902.38;5072850;28;20024;-50
2022/05/19 01:03:24;;;;;;;4.20;3.75;;;20.00;53.00;;;16.49;66.13;95897.97;5054823;28;20306;-49
2022/05/19 01:06:15;;;;;;;6.30;3.85;;;20.00;53.10;;;16.35;66.52;95898.69;5055057;28;20020;-48
2022/05/19 01:09:13;;;;;;;7.10;3.78;;;19.90;53.40;;;16.26;66.46;95894.28;5060955;28;20028;-48
2022/05/19 01:11:39;;;;;;;6.28;4.07;;;19.80;53.40;;;16.14;66.59;95892.88;5070580;28;20093;-51
2022/05/19 01:14:08;;;;;;;7.18;4.38;;;19.60;53.50;;;16.07;66.88;95897.78;5054560;28;20032;-51
2022/05/19 01:16:40;;;;;;;8.65;3.90;;;19.60;53.90;;;16.06;67.10;95898.88;5051286;28;20078;-49
2022/05/19 01:19:53;;;;;;;5.47;3.93;;;19.50;54.10;;;16.03;67.25;95894.09;5066285;28;20507;-51
2022/05/19 01:22:49;;;;;;;6.13;3.78;;;19.50;54.40;;;16.02;67.27;95895.19;5054429;28;20278;-51
2022/05/19 01:26:00;;;;;;;8.00;4.18;;;19.40;54.40;;;16.01;67.20;95895.47;5072100;28;20414;-49
2022/05/19 01:28:29;;;;;;;5.20;3.70;;;19.40;54.60;;;16.01;67.28;95904.31;5056594;28;20093;-49
2022/05/19 01:31:04;;;;;;;8.38;3.83;;;19.40;54.80;;;16.04;67.05;95909.13;5050924;28;20033;-49
2022/05/19 01:33:30;;;;;;;7.40;3.92;;;19.40;54.80;;;16.02;67.15;95908.63;5066886;28;20055;-49
2022/05/19 01:35:55;;;;;;;6.85;3.90;;;19.30;54.80;;;15.96;67.47;95915.16;5022588;28;20033;-50
2022/05/19 01:38:41;;;;;;;8.65;4.35;;;19.30;54.70;;;15.82;67.85;95925.81;5052063;28;20032;-49
2022/05/19 01:41:37;;;;;;;7.65;4.20;;;19.20;54.90;;;15.67;68.56;95912.63;5052169;28;20028;-48
2022/05/19 01:44:37;;;;;;;6.80;3.67;;;19.20;54.90;;;15.53;68.48;95923.22;5052034;28;20044;-49
2022/05/19 01:47:22;;;;;;;6.65;3.58;;;19.10;54.90;;;15.44;68.82;95919.56;5037134;28;20056;-49
2022/05/19 01:50:31;;;;;;;7.00;4.18;;;19.00;55.00;;;15.32;69.47;95925.31;5052057;28;20042;-49
2022/05/19 01:53:25;;;;;;;6.18;3.90;;;18.90;55.10;;;15.20;69.06;95927.63;5029565;28;20399;-50
2022/05/19 01:56:08;;;;;;;8.38;4.40;;;18.80;55.30;;;15.08;69.94;95917.28;5034270;28;20197;-49
2022/05/19 01:59:20;;;;;;;9.88;4.35;;;18.70;55.50;;;14.95;71.71;95918.78;5051975;28;20056;-49
2022/05/19 02:02:08;;;;;;;9.35;4.47;;;18.60;55.70;;;14.83;72.07;95917.56;5052004;28;20372;-50
2022/05/19 02:05:33;;;;;;;5.97;4.35;;;18.40;55.80;;;14.72;72.90;95927.56;5051913;28;20028;-52
2022/05/19 02:08:22;;;;;;;6.88;4.80;;;18.30;56.10;;;14.60;73.61;95924.44;4976527;28;20046;-50
2022/05/19 02:10:55;;;;;;;9.27;4.93;;;18.20;56.30;;;14.46;74.53;95926.94;5051920;28;20087;-50
2022/05/19 02:13:22;;;;;;;;;;;18.10;56.60;;;14.38;74.45;95919.50;5018371;28;20040;-49
2022/05/19 02:15:54;;;;;;;7.80;4.63;;;18.00;56.00;;;14.31;74.53;95920.63;5034261;28;19908;-50
2022/05/19 02:18:25;;;;;;;7.00;5.05;;;17.90;56.60;;;14.26;74.95;95930.59;5017546;28;20033;-49
2022/05/19 02:20:58;;;;;;;7.65;4.60;;;17.80;57.40;;;14.19;75.30;95932.78;5034194;28;20487;-48
2022/05/19 02:23:24;;;;;;;7.63;4.15;;;17.80;57.30;;;14.09;75.28;95930.97;5034063;28;20090;-49
2022/05/19 02:25:57;;;;;;;6.97;4.85;;;17.70;57.30;;;14.02;75.68;95927.81;5033856;28;20036;-49
2022/05/19 02:28:49;;;;;;;6.60;5.00;;;17.60;57.60;;;13.94;75.95;95920.34;5051790;28;20494;-50
2022/05/19 02:31:16;;;;;;;7.38;4.95;;;17.60;58.00;;;13.89;75.79;95921.19;5058648;28;20024;-48
2022/05/19 02:33:45;;;;;;;7.28;5.03;;;17.40;57.80;;;13.83;76.57;95922.28;5056064;23;20462;-52
2022/05/19 02:36:11;;;;;;;7.78;5.28;;;17.40;58.20;;;13.73;76.75;95917.00;5070430;28;20028;-54
2022/05/19 02:38:43;;;;;;;9.02;5.03;;;17.40;58.40;;;13.72;77.01;95923.41;5053598;28;20074;-52
2022/05/19 02:41:18;;;;;;;9.98;5.28;;;17.30;58.80;;;13.65;77.08;95927.19;5071968;28;20131;-52
2022/05/19 02:43:43;;;;;;;7.25;5.43;;;17.20;58.80;;;13.57;77.38;95933.13;5053626;28;20450;-52
2022/05/19 02:46:15;;;;;;;11.52;5.95;;;17.20;58.80;;;13.51;77.81;95933.44;5053817;28;20052;-52
2022/05/19 02:48:41;;;;;;;8.15;5.18;;;17.20;59.20;;;13.45;78.06;95923.81;5071535;28;20378;-52
2022/05/19 02:51:13;;;;;;;9.57;5.93;;;17.10;59.10;;;13.42;78.21;95930.53;5072030;28;20104;-51
2022/05/19 02:53:47;;;;;;;8.15;5.85;;;17.00;59.40;;;13.38;78.32;95929.44;5075112;28;20037;-51
2022/05/19 02:56:16;;;;;;;9.60;6.03;;;17.00;59.60;;;13.34;78.76;95931.06;5075046;28;20024;-50
2022/05/19 02:58:47;;;;;;;8.57;5.90;;;16.90;59.70;;;13.31;79.05;95937.75;5074023;28;20051;-54
2022/05/19 03:01:13;;;;;;;10.23;5.93;;;16.90;59.90;;;13.29;79.17;95928.44;5074915;28;20391;-49
2022/05/19 03:03:42;;;;;;;8.45;5.95;;;16.80;59.90;;;13.28;79.45;95943.66;5073791;28;20078;-52
2022/05/19 03:06:07;;;;;;;8.95;5.65;;;16.80;60.10;;;13.26;79.47;95945.03;5073754;28;20128;-49
2022/05/19 03:08:39;;;;;;;8.43;6.22;;;16.80;60.20;;;13.22;79.64;95951.94;5075006;28;20412;-49
2022/05/19 03:11:05;;;;;;;11.88;5.60;;;16.80;60.60;;;13.19;79.46;95940.75;5073556;28;20029;-52
2022/05/19 03:13:37;;;;;;;8.18;5.65;;;16.70;60.50;;;13.15;79.49;95947.69;5073365;28;20433;-52
2022/05/19 03:16:07;;;;;;;11.98;6.00;;;16.70;60.60;;;13.06;80.51;95943.97;5074821;28;20025;-54
2022/05/19 03:18:36;;;;;;;9.70;6.10;;;16.70;60.90;;;13.03;80.80;95946.38;5074893;28;20029;-50
2022/05/19 03:21:10;;;;;;;12.18;6.05;;;16.60;61.10;;;13.00;80.54;95945.03;5074638;28;20032;-51
2022/05/19 03:23:36;;;;;;;11.77;6.22;;;16.60;61.20;;;12.99;80.26;95951.47;5056722;28;20029;-53
2022/05/19 03:26:05;;;;;;;11.60;6.05;;;16.60;61.20;;;12.95;80.89;95950.41;5074482;28;20036;-51
2022/05/19 03:28:31;;;;;;;10.27;6.45;;;16.50;61.40;;;12.89;81.52;95952.28;5056654;28;20033;-49
2022/05/19 03:31:07;;;;;;;15.10;6.50;;;16.50;61.70;;;12.89;81.39;95951.50;5073493;28;20142;-51
2022/05/19 03:33:36;;;;;;;9.82;6.00;;;16.50;62.10;;;12.91;81.09;95946.66;5044709;28;20048;-50
2022/05/19 03:36:17;;;;;;;10.60;6.18;;;16.40;62.00;;;12.88;81.03;95950.69;5056603;28;20040;-51
2022/05/19 03:38:43;;;;;;;8.48;5.78;;;16.50;62.30;;;12.82;81.25;95950.97;5074384;28;20426;-54
2022/05/19 03:41:15;;;;;;;9.25;6.22;;;16.40;62.10;;;12.79;82.22;95959.53;5074254;28;20082;-51
2022/05/19 03:43:55;;;;;;;10.40;5.78;;;16.40;62.60;;;12.79;82.04;95956.88;5073098;28;20025;-53
2022/05/19 03:46:21;;;;;;;11.55;6.72;;;16.40;62.90;;;12.79;82.06;95956.88;5074517;28;20074;-52
2022/05/19 03:48:49;;;;;;;11.88;6.38;;;16.40;62.70;;;12.79;81.61;95956.88;5056289;28;20027;-52
2022/05/19 03:51:25;;;;;;;12.18;6.47;;;16.40;62.80;;;12.78;81.67;95956.03;5074015;28;20029;-51
2022/05/19 03:53:55;;;;;;;11.88;6.35;;;16.40;63.00;;;12.76;81.64;95958.19;5072903;28;20024;-51
2022/05/19 03:56:22;;;;;;;9.40;5.85;;;16.30;63.00;;;12.78;81.64;95964.06;5072636;28;20025;-49
2022/05/19 03:58:49;;;;;;;12.02;6.80;;;16.30;63.00;;;12.78;81.82;95961.38;5056180;28;20025;-50
2022/05/19 04:01:18;;;;;;;11.77;6.80;;;16.40;63.10;;;12.79;81.90;95968.34;5072548;28;20029;-50
2022/05/19 04:03:50;;;;;;;12.95;6.25;;;16.40;63.30;;;12.80;81.93;95961.13;5055042;28;20024;-50
2022/05/19 04:06:18;;;;;;;10.93;6.20;;;16.40;63.30;;;12.85;81.67;95975.28;5072677;28;20438;-49
2022/05/19 04:08:44;;;;;;;11.85;6.18;;;16.50;63.30;;;12.88;81.41;95971.25;5072745;28;20056;-49
2022/05/19 04:11:14;;;;;;;11.00;6.57;;;16.50;63.30;;;12.92;81.48;95975.81;5072621;28;20056;-50
2022/05/19 04:13:43;;;;;;;10.63;6.00;;;16.60;63.50;;;12.96;81.41;95982.22;5072423;28;20020;-49
2022/05/19 04:16:14;;;;;;;7.90;5.93;;;16.60;63.50;;;13.02;81.18;95990.25;5073388;28;20109;-50
2022/05/19 04:18:45;;;;;;;10.85;6.75;;;16.60;63.40;;;13.06;81.39;95981.41;5073538;28;20032;-50
2022/05/19 04:21:17;;;;;;;7.78;6.07;;;16.70;63.30;;;13.11;81.59;95993.97;5073563;28;20097;-51
2022/05/19 04:23:46;;;;;;;11.07;5.97;;;16.80;63.50;;;13.17;81.31;96001.72;5073481;28;20029;-49
2022/05/19 04:26:14;;;;;;;14.45;6.47;;;16.80;63.20;;;13.20;81.14;95995.81;5073374;28;20043;-50
2022/05/19 04:28:43;;;;;;;9.50;5.85;;;16.90;63.20;;;13.31;80.85;95998.50;5072214;28;20351;-52
2022/05/19 04:31:15;;;;;;;9.52;5.50;;;17.00;63.20;;;13.39;80.29;96000.63;5055400;28;20059;-48
2022/05/19 04:33:41;;;;;;;8.30;6.07;;;17.10;63.00;;;13.50;80.34;96004.88;5054752;28;20033;-49
2022/05/19 04:36:07;;;;;;;11.75;5.57;;;17.20;62.90;;;13.66;80.31;96005.63;5073319;28;20075;-53
2022/05/19 04:38:35;;;;;;;8.43;5.45;;;17.30;62.90;;;13.91;80.03;96010.06;5038743;28;20502;-52
2022/05/19 04:41:07;;;;;;;9.95;5.68;;;17.50;62.90;;;14.20;78.97;96010.19;5071754;28;20028;-52
2022/05/19 04:43:39;;;;;;;10.65;5.93;;;17.70;62.80;;;14.53;78.19;96008.66;5072939;28;20032;-53
2022/05/19 04:46:07;;;;;;;12.45;5.20;;;17.90;62.50;;;14.81;77.00;96011.69;5073113;28;20375;-50
2022/05/19 04:48:39;;;;;;;11.35;6.40;;;18.10;62.10;;;14.98;74.76;96012.09;5072932;28;20056;-49
2022/05/19 04:51:05;;;;;;;10.52;5.90;;;18.40;61.70;;;15.15;74.31;96014.34;5072947;28;20075;-52
2022/05/19 04:53:34;;;;;;;12.60;6.38;;;18.50;61.20;;;15.37;73.71;96010.38;5071256;28;20032;-49
2022/05/19 04:56:09;;;;;;;23.08;7.18;;;18.70;60.80;;;15.62;73.02;96012.78;5072725;28;20025;-46
2022/05/19 04:58:42;;;;;;;31.38;10.20;;;19.00;60.60;;;15.86;72.53;96014.69;5073045;28;20029;-52
2022/05/19 05:01:20;;;;;;;15.40;8.07;;;19.20;60.10;;;16.16;71.32;96016.19;5054891;28;20020;-49
2022/05/19 05:03:46;;;;;;;28.58;7.82;;;19.40;59.80;;;16.38;71.40;96021.78;5072595;28;20067;-50
2022/05/19 05:06:18;;;;;;;15.85;6.85;;;19.70;59.60;;;16.58;71.17;96020.72;5072468;28;20048;-52
2022/05/19 05:08:49;;;;;;;20.42;6.78;;;19.90;59.40;;;16.73;70.42;96027.72;5072668;28;20093;-50
2022/05/19 05:11:14;;;;;;;11.23;6.60;;;20.10;59.00;;;16.90;70.26;96029.94;5054658;28;20020;-53
2022/05/19 05:13:43;;;;;;;10.77;6.93;;;20.30;58.80;;;17.11;70.17;96033.88;5071186;28;20074;-49
2022/05/19 05:16:15;;;;;;;10.52;6.20;;;20.50;58.60;;;17.27;68.93;96034.41;5072472;28;20165;-50
2022/05/19 05:18:40;;;;;;;10.73;5.97;;;20.70;58.30;;;17.39;68.67;96043.91;5064053;28;20040;-49
2022/05/19 05:21:13;;;;;;;14.27;6.10;;;20.90;58.00;;;17.59;68.02;96038.16;5070786;28;20024;-55
2022/05/19 05:23:45;;;;;;;11.20;6.05;;;21.10;57.70;;;17.75;67.51;96041.38;5070123;28;20068;-49
2022/05/19 05:26:10;;;;;;;8.80;5.72;;;21.30;57.40;;;17.85;67.96;96043.09;5053846;28;20028;-50
2022/05/19 05:28:45;;;;;;;9.57;5.75;;;21.50;57.20;;;17.95;66.61;96045.56;5067130;28;20025;-48
2022/05/19 05:31:10;;;;;;;8.98;5.55;;;21.60;56.80;;;18.19;66.73;96050.75;5063746;28;20118;-47
2022/05/19 05:33:36;;;;;;;8.35;4.85;;;21.80;56.40;;;18.49;65.76;96054.72;5048533;28;20045;-47
2022/05/19 05:36:02;;;;;;;9.48;4.93;;;22.00;56.10;;;18.71;64.72;96056.66;5071081;28;20021;-50
2022/05/19 05:38:28;;;;;;;10.32;5.50;;;22.30;55.80;;;19.02;63.77;96055.94;5071251;28;20032;-51
2022/05/19 05:40:54;;;;;;;8.70;5.70;;;22.50;55.40;;;19.26;62.34;96059.13;5071094;28;20475;-52
2022/05/19 05:43:21;;;;;;;8.60;5.72;;;22.80;55.00;;;19.38;61.51;96066.69;5071279;28;20032;-50
2022/05/19 05:45:49;;;;;;;7.75;5.30;;;23.00;54.50;;;19.56;61.00;96072.97;5053443;28;20048;-51
2022/05/19 05:48:16;;;;;;;10.20;5.35;;;23.20;54.00;;;19.72;59.80;96076.13;5052775;28;20016;-50
2022/05/19 05:50:43;;;;;;;6.40;4.72;;;23.40;53.50;;;19.86;59.92;96074.88;5067914;28;20036;-51
2022/05/19 05:53:26;;;;;;;10.20;5.35;;;23.60;52.90;;;20.16;59.77;96074.38;5053305;28;20517;-47
2022/05/19 05:55:51;;;;;;;7.47;5.27;;;23.80;52.60;;;20.41;58.72;96080.97;5071264;28;20029;-51
2022/05/19 05:58:17;;;;;;;10.57;5.13;;;24.10;52.20;;;20.67;58.39;96070.19;5069848;28;20298;-50
2022/05/19 06:00:43;;;;;;;9.90;4.90;;;24.30;51.80;;;20.86;57.45;96078.81;5069689;28;20592;-50
2022/05/19 06:03:14;;;;;;;6.78;5.28;;;24.60;51.30;;;21.10;56.77;96082.97;5071044;28;20039;-53
2022/05/19 06:05:46;;;;;;;7.75;5.18;;;24.90;50.80;;;21.24;56.66;96084.34;5071648;28;20024;-47
2022/05/19 06:08:18;;;;;;;9.80;5.35;;;25.10;50.20;;;21.60;55.68;96096.00;5071761;28;20035;-48
2022/05/19 06:10:44;;;;;;;8.70;5.47;;;25.40;49.80;;;21.85;54.00;96094.31;5070790;28;20179;-51
2022/05/19 06:13:11;;;;;;;9.77;5.40;;;25.70;49.30;;;22.04;54.25;96096.66;5053423;28;20033;-50
2022/05/19 06:15:40;;;;;;;8.40;4.85;;;26.00;48.90;;;22.34;52.97;96100.19;5069898;28;20051;-48
2022/05/19 06:18:11;;;;;;;7.80;4.90;;;26.30;48.20;;;22.69;51.86;96098.09;5071112;28;20032;-48
2022/05/19 06:20:42;;;;;;;8.77;4.82;;;26.60;47.70;;;23.11;50.34;96113.63;5069516;28;20503;-48
2022/05/19 06:23:12;;;;;;;10.15;5.15;;;26.90;47.00;;;23.30;49.58;96106.56;5071206;28;20387;-47
2022/05/19 06:25:47;;;;;;;8.38;4.93;;;27.30;46.40;;;23.56;48.98;96109.03;5070955;28;20040;-48
2022/05/19 06:28:25;;;;;;;6.00;4.93;;;27.60;45.70;;;23.60;48.46;96102.94;5075091;28;20029;-48
2022/05/19 06:30:55;;;;;;;5.38;4.78;;;28.00;45.00;;;24.00;48.31;96112.13;5073273;28;20024;-48
2022/05/19 06:33:22;;;;;;;5.15;4.30;;;28.20;44.40;;;24.29;47.21;96106.81;5055739;28;20063;-49
2022/05/19 06:35:48;;;;;;;8.35;5.50;;;28.50;44.00;;;24.59;46.43;96115.56;5033636;28;20056;-49
2022/05/19 06:38:15;;;;;;;7.10;4.65;;;28.70;43.50;;;24.75;46.42;96107.50;5040102;28;20037;-53
2022/05/19 06:40:41;;;;;;;6.38;5.03;;;29.00;43.10;;;24.83;45.94;96110.09;5033289;28;20018;-49
2022/05/19 06:43:14;;;;;;;8.00;4.50;;;29.20;42.60;;;24.93;44.53;96111.56;5034741;28;20029;-50
2022/05/19 06:45:46;;;;;;;7.75;4.72;;;29.40;41.70;;;24.96;44.34;96112.81;5034903;28;20060;-49
2022/05/19 06:48:14;;;;;;;8.65;4.50;;;29.60;41.10;;;25.14;44.08;96114.94;5034543;28;20514;-50
2022/05/19 06:50:43;;;;;;;7.10;4.53;;;29.70;40.60;;;25.29;43.39;96113.41;5033215;28;20033;-49
2022/05/19 06:53:15;;;;;;;6.95;4.13;;;30.00;40.20;;;25.38;43.37;96110.53;5033208;28;20145;-50
2022/05/19 06:55:40;;;;;;;5.78;4.10;;;30.10;39.80;;;25.48;43.20;96115.50;5034830;28;20033;-49
2022/05/19 06:58:06;;;;;;;8.10;5.20;;;30.40;39.30;;;25.81;42.76;96125.34;5049818;28;20037;-48
2022/05/19 07:00:38;;;;;;;5.97;4.82;;;30.60;38.80;;;25.97;42.42;96117.19;5033997;28;20021;-52
2022/05/19 07:03:09;;;;;;;6.73;5.27;;;30.90;38.30;;;26.18;41.97;96123.19;5041492;28;20025;-50
2022/05/19 07:05:39;;;;;;;7.43;5.05;;;31.10;38.00;;;26.14;42.03;96116.88;5041067;28;20291;-50
2022/05/19 07:08:08;;;;;;;7.07;4.45;;;31.40;37.40;;;26.47;42.25;96126.63;5033112;28;20038;-49
2022/05/19 07:10:45;;;;;;;6.63;4.50;;;31.60;37.10;;;26.79;41.36;96118.41;5032589;28;20120;-49
2022/05/19 07:13:12;;;;;;;6.55;4.50;;;32.00;36.70;;;26.99;41.33;96125.50;5033054;28;20037;-50
2022/05/19 07:15:44;;;;;;;8.38;4.50;;;32.30;36.40;;;27.24;40.59;96125.28;5032920;28;20022;-49
2022/05/19 07:18:12;;;;;;;5.70;4.72;;;32.50;35.60;;;27.55;39.55;96122.38;5032981;28;20033;-49
2022/05/19 07:20:44;;;;;;;5.85;4.38;;;32.80;35.30;;;27.68;39.48;96123.81;5032469;28;20026;-49
2022/05/19 07:23:15;;;;;;;7.57;4.63;;;33.10;34.90;;;27.90;38.93;96127.75;5033218;28;20026;-50
2022/05/19 07:25:43;;;;;;;8.80;4.85;;;33.30;34.40;;;28.19;38.77;96128.25;5033216;28;20472;-51
2022/05/19 07:28:10;;;;;;;7.95;4.82;;;33.50;34.10;;;28.38;37.83;96133.66;5032769;28;20566;-49
2022/05/19 07:30:36;;;;;;;5.60;4.57;;;33.70;33.60;;;28.44;37.69;96128.69;5033098;28;20488;-48
2022/05/19 07:33:11;;;;;;;6.18;4.68;;;33.80;33.10;;;28.46;38.42;96126.38;5050821;28;20060;-48
2022/05/19 07:35:37;;;;;;;7.32;4.30;;;33.90;33.00;;;28.72;39.64;96135.78;5032769;28;20032;-51
2022/05/19 07:38:06;;;;;;;6.40;4.30;;;34.10;33.20;;;28.91;37.56;96129.41;5032091;28;20171;-52
2022/05/19 07:40:32;;;;;;;8.65;4.45;;;34.40;33.00;;;28.95;38.58;96127.50;5033349;28;20380;-50
2022/05/19 07:45:48;;;;;;;5.65;4.30;;;34.80;32.80;;;29.40;38.18;96129.31;5032902;28;20040;-53
2022/05/19 07:48:16;;;;;;;6.90;4.93;;;35.00;32.20;;;29.42;36.31;96128.91;5032492;28;20033;-51
2022/05/19 07:50:45;;;;;;;5.25;4.60;;;35.20;31.80;;;29.53;36.10;96127.09;5033147;28;20030;-51
2022/05/19 07:53:17;;;;;;;6.18;4.82;;;35.50;31.10;;;29.81;35.68;96136.84;5038983;28;20487;-52
2022/05/19 07:55:46;;;;;;;6.70;4.70;;;35.60;30.60;;;29.62;35.88;96135.88;5068641;28;20033;-52
2022/05/19 07:58:14;;;;;;;5.35;4.65;;;35.90;30.10;;;29.81;35.85;96134.91;5053373;28;20566;-50
2022/05/19 08:00:52;;;;;;;5.90;5.05;;;35.90;29.70;;;30.18;34.97;96134.09;5053062;28;20024;-55
2022/05/19 08:03:20;;;;;;;7.15;5.00;;;36.10;29.60;;;30.39;34.20;96134.28;5068449;28;20037;-52
2022/05/19 08:05:46;;;;;;;6.55;4.60;;;36.30;29.40;;;30.55;34.45;96136.75;5053096;28;20021;-52
2022/05/19 08:08:12;;;;;;;7.55;4.85;;;36.40;29.30;;;30.41;34.68;96131.16;5051954;28;20036;-51
2022/05/19 08:10:41;;;;;;;6.93;5.07;;;36.50;29.20;;;30.45;34.29;96137.47;5068161;28;20061;-51
2022/05/19 08:16:06;;;;;;;7.93;4.80;;;36.80;28.90;;;30.93;34.33;96136.66;5052254;28;20530;-54
2022/05/19 08:18:38;;;;;;;6.97;4.40;;;36.80;28.80;;;31.17;34.03;96138.78;5052868;28;20526;-52
2022/05/19 08:21:07;;;;;;;;;;;37.00;28.70;;;31.36;34.00;96134.97;5053303;28;20502;-50
2022/05/19 08:23:42;;;;;;;7.75;4.82;;;37.10;29.10;;;31.53;33.36;96131.50;5051541;28;19909;-50
2022/05/19 08:26:14;;;;;;;6.82;4.97;;;37.50;28.60;;;31.18;33.00;96134.06;5051567;28;20032;-50
2022/05/19 08:28:44;;;;;;;6.85;4.70;;;37.60;28.10;;;31.42;34.10;96141.66;5052737;28;20060;-51
2022/05/19 08:31:16;;;;;;;8.38;4.80;;;37.60;28.10;;;31.60;33.20;96144.50;5068099;28;20036;-54
2022/05/19 08:33:44;;;;;;;10.38;4.93;;;37.70;27.80;;;32.08;32.83;96135.22;5061483;23;20048;-55
2022/05/19 08:36:10;;;;;;;5.57;4.78;;;37.90;27.90;;;32.32;31.61;96134.44;5090346;28;20027;-50
2022/05/19 08:38:42;;;;;;;8.88;5.22;;;38.10;27.80;;;32.36;31.97;96132.47;5074231;28;20066;-54
2022/05/19 08:41:28;;;;;;;8.18;5.32;;;38.30;27.40;;;32.62;31.63;96139.59;5093351;28;20437;-51
2022/05/19 08:44:06;;;;;;;6.38;4.97;;;38.60;27.30;;;32.60;31.88;96130.16;5080274;28;20092;-54
2022/05/19 08:46:46;;;;;;;6.88;5.20;;;38.70;27.20;;;32.71;30.86;96125.41;5095526;28;20020;-53
2022/05/19 08:50:04;;;;;;;8.23;5.05;;;38.90;26.90;;;32.59;30.84;96132.09;5095412;28;20028;-55
2022/05/19 08:52:50;;;;;;;8.95;4.65;;;39.10;26.50;;;32.89;30.98;96128.16;5063258;28;20055;-51
2022/05/19 08:55:19;;;;;;;6.05;4.50;;;39.20;26.30;;;33.20;31.03;96122.97;5075161;28;20398;-50
2022/05/19 08:58:17;;;;;;;7.45;4.88;;;39.40;26.30;;;33.35;29.31;96122.53;5092983;28;20482;-50
2022/05/19 09:00:51;;;;;;;6.78;4.72;;;39.70;26.00;;;33.47;28.78;96121.31;5093037;28;20052;-53
2022/05/19 09:03:55;;;;;;;6.38;4.72;;;39.90;25.40;;;33.74;30.21;96118.03;5075583;28;20040;-51
2022/05/19 09:10:22;;;;;;;6.07;4.97;;;40.00;25.20;;;34.10;28.90;96113.13;5058073;28;20132;-53
2022/05/19 09:12:56;;;;;;;9.13;5.28;;;40.30;25.30;;;34.37;28.24;96112.53;5075125;28;20486;-52
2022/05/19 09:15:22;;;;;;;5.75;5.20;;;40.50;25.10;;;34.15;28.30;96114.66;5072234;28;20112;-53
2022/05/19 09:17:48;;;;;;;8.20;5.00;;;40.70;24.80;;;33.96;29.07;96107.66;5084594;28;20506;-55
2022/05/19 09:20:21;;;;;;;6.20;5.25;;;40.70;24.60;;;34.29;28.22;96109.03;5071035;28;20107;-51
2022/05/19 09:22:47;;;;;;;8.65;4.93;;;40.70;24.50;;;34.48;27.94;96121.53;5056717;28;20107;-52
2022/05/19 09:25:18;;;;;;;8.20;4.80;;;40.70;24.40;;;34.80;28.00;96112.19;5096086;28;20020;-54
2022/05/19 09:27:49;;;;;;;8.07;5.03;;;40.90;24.40;;;34.23;28.09;96111.44;5083554;28;20028;-55
2022/05/19 09:30:38;;;;;;;5.72;4.97;;;40.90;24.10;;;34.45;27.41;96103.00;5063950;28;20028;-51
2022/05/19 09:33:28;;;;;;;9.85;4.57;;;40.80;24.10;;;34.80;27.61;96106.66;5073203;28;20047;-54
2022/05/19 09:35:59;;;;;;;7.03;4.75;;;41.00;24.20;;;35.12;28.19;96106.34;5090999;28;20051;-52
2022/05/19 09:38:47;;;;;;;5.90;4.90;;;41.10;24.30;;;35.17;26.61;96109.44;5073853;28;20032;-54
2022/05/19 09:41:39;;;;;;;6.68;4.85;;;41.20;24.00;;;35.19;26.72;96101.50;5072130;28;20027;-51
2022/05/19 09:44:11;;;;;;;10.88;5.68;;;41.30;23.90;;;35.26;26.63;96110.91;5072316;28;20028;-50
2022/05/19 09:46:50;;;;;;;10.95;5.07;;;41.30;23.70;;;35.46;26.24;96103.56;5070688;28;20036;-55
2022/05/19 09:49:44;;;;;;;6.15;5.30;;;41.50;23.70;;;35.67;26.46;96097.78;5073289;28;20028;-52
2022/05/19 09:52:23;;;;;;;10.85;5.57;;;41.70;23.60;;;35.75;26.22;96105.97;5072692;28;20028;-54
2022/05/19 09:55:01;;;;;;;6.15;4.70;;;41.80;23.60;;;35.83;27.38;96096.38;5074885;28;20031;-52
2022/05/19 09:57:58;;;;;;;9.35;5.50;;;42.10;23.80;;;36.41;27.89;96102.63;5074559;28;20389;-53
2022/05/19 10:00:43;;;;;;;8.30;5.10;;;42.30;23.80;;;36.33;25.44;96087.34;5093156;28;20031;-55
2022/05/19 10:03:36;;;;;;;6.28;5.68;;;42.60;23.20;;;36.55;25.70;96088.56;5096375;28;20034;-52
2022/05/19 10:06:32;;;;;;;8.55;5.90;;;42.70;23.10;;;36.30;25.67;96086.19;5059977;28;20028;-53
2022/05/19 10:09:10;;;;;;;8.68;5.57;;;42.80;22.70;;;36.17;24.97;96082.44;5079827;28;20591;-53
2022/05/19 10:12:11;;;;;;;7.18;5.50;;;42.90;22.50;;;36.38;25.13;96084.06;5066712;28;20032;-53
2022/05/19 10:14:43;;;;;;;6.18;5.28;;;43.00;22.50;;;36.42;26.38;96084.00;5078440;28;20028;-54
2022/05/19 10:17:27;;;;;;;7.55;5.78;;;43.20;22.60;;;36.33;25.29;96071.47;5096388;28;20101;-51
2022/05/19 10:20:30;;;;;;;8.48;6.18;;;43.20;22.30;;;36.90;25.58;96080.81;5074760;28;20024;-51
2022/05/19 10:23:36;;;;;;;9.85;5.60;;;43.30;22.30;;;36.73;25.57;96081.91;5083564;28;20153;-56
2022/05/19 10:26:44;;;;;;;7.13;5.22;;;43.40;22.30;;;36.99;26.08;96078.28;5096385;28;20574;-56
2022/05/19 10:32:46;;;;;;;6.15;5.65;;;43.50;22.20;;;36.96;25.04;96067.22;5080662;28;20111;-53
2022/05/19 10:35:56;;;;;;;7.78;5.60;;;43.40;22.20;;;36.89;25.86;96051.50;5060940;28;20502;-51
2022/05/19 10:39:21;;;;;;;7.32;5.68;;;43.40;22.20;;;37.18;24.98;96062.06;5058266;28;20498;-50
2022/05/19 10:41:57;;;;;;;8.98;6.28;;;43.50;22.20;;;37.23;24.94;96058.75;5064512;28;20039;-52
2022/05/19 10:45:07;;;;;;;7.85;6.13;;;43.60;22.10;;;37.46;24.24;96061.50;5077630;28;20024;-54
2022/05/19 10:48:32;;;;;;;6.63;5.78;;;43.70;22.10;;;37.15;24.66;96057.34;5095718;28;20028;-54
2022/05/19 10:51:49;;;;;;;8.40;5.78;;;43.90;21.90;;;37.46;23.73;96046.81;5095546;28;20032;-52
2022/05/19 10:54:47;;;;;;;7.90;5.10;;;44.00;21.60;;;37.97;23.61;96053.63;5036731;28;20050;-54
2022/05/19 10:57:56;;;;;;;7.20;6.30;;;44.20;21.70;;;37.99;23.40;96052.44;5030639;28;20044;-53
2022/05/19 11:00:33;;;;;;;13.60;5.93;;;44.40;21.40;;;38.02;23.59;96041.22;5082002;28;20036;-53
2022/05/19 11:03:46;;;;;;;8.35;6.00;;;44.40;21.30;;;37.49;23.43;96043.19;5089913;28;20511;-57
2022/05/19 11:06:38;;;;;;;6.80;5.60;;;44.60;21.00;;;37.46;22.97;96041.28;5093761;28;20024;-54
2022/05/19 11:09:41;;;;;;;8.30;5.38;;;44.60;21.00;;;37.70;23.06;96036.34;5036853;28;20050;-51